createdAt,value
2019-05-26T00:04:21.349Z,4.61
2019-05-26T00:09:29.914Z,5.50
2019-05-26T00:14:38.481Z,4.50
2019-05-26T00:19:47.061Z,5.35
2019-05-26T00:24:56.091Z,5.70
2019-05-26T00:30:03.706Z,5.57
2019-05-26T00:35:12.301Z,4.21
2019-05-26T00:40:20.908Z,5.12
2019-05-26T00:45:29.529Z,5.13
2019-05-26T00:50:38.157Z,4.41
2019-05-26T00:55:46.682Z,4.29
2019-05-26T01:00:55.237Z,4.64
2019-05-26T01:06:03.951Z,5.45
2019-05-26T01:11:12.437Z,3.62
2019-05-26T01:16:20.977Z,4.26
2019-05-26T01:21:29.577Z,4.45
2019-05-26T01:26:38.129Z,4.02
2019-05-26T01:31:46.714Z,5.27
2019-05-26T01:36:55.272Z,5.98
2019-05-26T01:42:03.841Z,5.28
2019-05-26T01:47:12.468Z,5.63
2019-05-26T01:52:21.185Z,6.57
2019-05-26T01:57:29.749Z,6.92
2019-05-26T02:02:38.327Z,7.12
2019-05-26T02:07:46.898Z,9.44
2019-05-26T02:12:55.482Z,8.10
2019-05-26T02:18:04.050Z,10.61
2019-05-26T02:23:12.693Z,11.60
2019-05-26T02:28:21.246Z,9.85
2019-05-26T02:33:29.803Z,11.14
2019-05-26T02:38:57.314Z,9.39
2019-05-26T02:43:46.491Z,8.21
2019-05-26T02:48:55.066Z,8.25
2019-05-26T02:54:03.685Z,8.25
2019-05-26T02:59:12.211Z,9.02
2019-05-26T03:04:20.793Z,10.28
2019-05-26T03:09:29.348Z,10.00
2019-05-26T03:14:37.905Z,9.07
2019-05-26T03:19:46.460Z,9.04
2019-05-26T03:24:55.029Z,9.48
2019-05-26T03:30:03.593Z,12.70
2019-05-26T03:35:12.222Z,11.48
2019-05-26T03:40:20.761Z,8.75
2019-05-26T03:45:29.374Z,8.98
2019-05-26T03:50:37.947Z,10.27
2019-05-26T03:55:46.515Z,11.26
2019-05-26T04:00:55.107Z,8.22
2019-05-26T04:06:03.680Z,9.93
2019-05-26T04:11:12.352Z,10.29
2019-05-26T04:16:20.925Z,7.35
2019-05-26T04:21:29.534Z,9.44
2019-05-26T04:26:38.143Z,7.98
2019-05-26T04:31:46.707Z,7.43
2019-05-26T04:36:55.334Z,6.88
2019-05-26T04:42:03.915Z,5.26
2019-05-26T04:47:12.560Z,4.96
2019-05-26T04:52:21.481Z,4.30
2019-05-26T04:57:30.065Z,6.19
2019-05-26T05:02:38.657Z,5.68
2019-05-26T05:07:47.262Z,6.93
2019-05-26T05:12:55.786Z,5.29
2019-05-26T05:18:04.348Z,5.72
2019-05-26T05:23:12.897Z,4.90
2019-05-26T05:28:21.470Z,3.63
2019-05-26T05:33:30.061Z,2.94
2019-05-26T05:38:38.632Z,3.56
2019-05-26T05:43:49.984Z,4.08
2019-05-26T05:48:48.686Z,2.82
2019-05-26T05:53:57.229Z,2.35
2019-05-26T05:59:05.789Z,2.89
2019-05-26T06:04:15.461Z,3.17
2019-05-26T06:09:24.052Z,3.31
2019-05-26T06:14:32.730Z,2.73
2019-05-26T06:19:41.222Z,2.96
2019-05-26T06:24:49.766Z,3.03
2019-05-26T06:29:59.343Z,2.88
2019-05-26T06:35:06.529Z,3.27
2019-05-26T06:40:15.100Z,3.28
2019-05-26T06:45:23.681Z,3.43
2019-05-26T06:50:38.678Z,4.28
2019-05-26T06:55:37.236Z,5.42
2019-05-26T07:00:45.842Z,4.88
2019-05-26T07:05:54.371Z,3.73
2019-05-26T07:11:02.969Z,2.56
2019-05-26T07:16:11.504Z,2.47
2019-05-26T07:21:20.097Z,2.17
2019-05-26T07:26:31.133Z,2.15
2019-05-26T07:31:29.709Z,1.94
2019-05-26T07:36:38.269Z,1.89
2019-05-26T07:41:46.810Z,1.90
2019-05-26T07:46:55.375Z,1.99
2019-05-26T07:52:03.938Z,1.73
2019-05-26T07:57:12.501Z,1.54
2019-05-26T08:02:21.074Z,1.27
2019-05-26T08:07:29.609Z,1.72
2019-05-26T08:12:38.234Z,1.77
2019-05-26T08:17:46.771Z,1.85
2019-05-26T08:22:55.386Z,1.50
2019-05-26T08:28:03.921Z,1.13
2019-05-26T08:33:12.537Z,1.55
2019-05-26T08:38:21.105Z,1.30
2019-05-26T08:43:29.677Z,1.31
2019-05-26T08:48:38.273Z,2.09
2019-05-26T08:53:46.834Z,2.18
2019-05-26T08:58:55.447Z,2.06
2019-05-26T09:04:04.015Z,2.42
2019-05-26T09:09:12.549Z,1.70
2019-05-26T09:14:21.134Z,1.34
2019-05-26T09:19:29.675Z,1.17
2019-05-26T09:24:38.262Z,1.18
2019-05-26T09:29:46.837Z,0.81
2019-05-26T09:34:55.433Z,0.97
2019-05-26T09:40:04.013Z,0.54
2019-05-26T09:45:12.587Z,0.31
2019-05-26T09:50:21.255Z,0.45
2019-05-26T09:55:29.836Z,1.07
2019-05-26T10:00:38.455Z,1.00
2019-05-26T10:05:47.042Z,1.46
2019-05-26T10:10:55.605Z,1.38
2019-05-26T10:16:04.191Z,1.52
2019-05-26T10:21:12.775Z,2.09
2019-05-26T10:26:21.322Z,1.10
2019-05-26T10:31:29.901Z,1.32
2019-05-26T10:36:38.501Z,2.36
2019-05-26T10:41:47.079Z,3.63
2019-05-26T10:46:55.701Z,4.45
2019-05-26T10:52:04.314Z,5.31
2019-05-26T10:57:12.889Z,7.42
2019-05-26T11:02:21.473Z,5.96
2019-05-26T11:07:30.057Z,5.52
2019-05-26T11:12:38.670Z,4.71
2019-05-26T11:17:47.265Z,4.43
2019-05-26T11:22:55.871Z,2.94
2019-05-26T11:28:04.509Z,2.48
2019-05-26T11:33:13.134Z,2.78
2019-05-26T11:38:21.752Z,2.47
2019-05-26T11:43:30.403Z,2.77
2019-05-26T11:48:39.520Z,2.91
2019-05-26T11:53:47.021Z,3.02
2019-05-26T11:58:55.649Z,3.35
2019-05-26T12:04:04.188Z,2.75
2019-05-26T12:09:12.757Z,3.83
2019-05-26T12:14:34.181Z,3.44
2019-05-26T12:19:29.433Z,2.82
2019-05-26T12:24:38.026Z,3.78
2019-05-26T12:29:46.706Z,3.36
2019-05-26T12:34:55.278Z,3.63
2019-05-26T12:40:03.953Z,3.93
2019-05-26T12:45:12.599Z,2.99
2019-05-26T12:50:21.185Z,4.59
2019-05-26T12:55:29.757Z,3.13
2019-05-26T13:00:48.433Z,2.56
2019-05-26T13:05:46.501Z,2.98
2019-05-26T13:10:55.078Z,4.19
2019-05-26T13:16:03.813Z,4.42
2019-05-26T13:21:12.434Z,4.59
2019-05-26T13:26:20.981Z,6.51
2019-05-26T13:31:29.626Z,5.31
2019-05-26T13:36:38.195Z,4.49
2019-05-26T13:41:46.817Z,6.39
2019-05-26T13:46:55.385Z,8.85
2019-05-26T13:52:03.929Z,8.16
2019-05-26T13:57:12.578Z,11.30
2019-05-26T14:02:21.165Z,11.49
2019-05-26T14:07:29.732Z,9.59
2019-05-26T14:12:38.334Z,8.95
2019-05-26T14:17:46.957Z,9.56
2019-05-26T14:22:55.551Z,12.08
2019-05-26T14:28:10.185Z,11.73
2019-05-26T14:33:08.751Z,12.40
2019-05-26T14:38:17.375Z,11.95
2019-05-26T14:43:25.937Z,13.48
2019-05-26T14:48:34.554Z,13.20
2019-05-26T14:53:43.270Z,13.01
2019-05-26T14:58:51.832Z,12.04
2019-05-26T15:04:00.441Z,13.24
2019-05-26T15:09:22.378Z,13.32
2019-05-26T15:14:17.152Z,12.73
2019-05-26T15:19:25.677Z,14.41
2019-05-26T15:24:34.304Z,14.03
2019-05-26T15:29:43.001Z,12.06
2019-05-26T15:34:51.580Z,9.76
2019-05-26T15:40:00.232Z,10.26
2019-05-26T15:45:08.820Z,9.41
2019-05-26T15:50:17.434Z,9.53
2019-05-26T15:55:26.049Z,9.32
2019-05-26T16:00:33.208Z,9.85
2019-05-26T16:05:41.829Z,9.36
2019-05-26T16:10:50.415Z,10.90
2019-05-26T16:15:59.025Z,11.88
2019-05-26T16:21:24.772Z,9.86
2019-05-26T16:26:15.858Z,11.07
2019-05-26T16:31:24.456Z,8.74
2019-05-26T16:36:33.070Z,8.11
2019-05-26T16:41:41.674Z,9.74
2019-05-26T16:46:56.491Z,9.86
2019-05-26T16:51:58.507Z,10.46
2019-05-26T16:57:07.129Z,8.98
2019-05-26T17:02:15.760Z,9.81
2019-05-26T17:07:24.365Z,10.80
2019-05-26T17:12:32.981Z,12.08
2019-05-26T17:17:41.645Z,11.10
2019-05-26T17:22:50.274Z,11.27
2019-05-26T17:27:58.876Z,12.45
2019-05-26T17:33:07.467Z,14.00
2019-05-26T17:38:16.080Z,12.89
2019-05-26T17:43:24.657Z,10.17
2019-05-26T17:48:33.312Z,11.38
2019-05-26T17:53:41.878Z,13.55
2019-05-26T17:58:50.433Z,12.63
2019-05-26T18:03:59.010Z,10.34
2019-05-26T18:09:07.688Z,12.58
2019-05-26T18:14:16.385Z,12.74
2019-05-26T18:19:24.997Z,11.39
2019-05-26T18:24:33.612Z,11.83
2019-05-26T18:29:42.225Z,14.31
2019-05-26T18:34:50.745Z,15.31
2019-05-26T18:39:59.396Z,11.40
2019-05-26T18:45:07.950Z,11.54
2019-05-26T18:50:16.542Z,10.62
2019-05-26T18:55:25.118Z,10.64
2019-05-26T19:00:33.693Z,11.21
2019-05-26T19:05:42.297Z,10.04
2019-05-26T19:10:50.903Z,11.09
2019-05-26T19:15:59.436Z,12.21
2019-05-26T19:21:07.995Z,11.19
2019-05-26T19:26:16.573Z,10.23
2019-05-26T19:31:25.232Z,9.25
2019-05-26T19:36:33.797Z,10.86
2019-05-26T19:41:42.377Z,9.49
2019-05-26T19:46:53.018Z,9.31
2019-05-26T19:51:59.049Z,10.14
2019-05-26T19:57:07.615Z,11.08
2019-05-26T20:02:18.765Z,10.01
2019-05-26T20:07:24.421Z,10.44
2019-05-26T20:12:32.985Z,10.08
2019-05-26T20:17:41.541Z,18.54
2019-05-26T20:22:56.545Z,8.99
2019-05-26T20:27:55.040Z,8.56
2019-05-26T20:33:03.617Z,10.48
2019-05-26T20:38:12.183Z,7.79
2019-05-26T20:43:20.730Z,8.67
2019-05-26T20:48:29.253Z,7.66
2019-05-26T20:53:40.487Z,9.79
2019-05-26T20:58:45.889Z,10.44
2019-05-26T21:03:54.449Z,7.59
2019-05-26T21:09:02.982Z,12.83
2019-05-26T21:14:11.542Z,9.89
2019-05-26T21:19:23.181Z,9.15
2019-05-26T21:24:21.749Z,8.72
2019-05-26T21:29:30.333Z,8.99
2019-05-26T21:34:38.896Z,10.00
2019-05-26T21:39:47.469Z,7.85
2019-05-26T21:44:56.054Z,8.45
2019-05-26T21:50:04.590Z,7.20
2019-05-26T21:55:13.167Z,9.94
2019-05-26T22:00:21.706Z,8.91
2019-05-26T22:05:30.249Z,8.53
2019-05-26T22:10:38.793Z,9.69
2019-05-26T22:15:47.364Z,7.64
2019-05-26T22:20:55.910Z,9.69
2019-05-26T22:26:04.489Z,8.24
2019-05-26T22:31:13.070Z,7.32
2019-05-26T22:36:21.618Z,6.79
2019-05-26T22:41:30.191Z,9.37
2019-05-26T22:46:38.787Z,8.38
2019-05-26T22:51:47.325Z,8.54
2019-05-26T22:56:55.889Z,8.58
2019-05-26T23:02:04.454Z,7.70
2019-05-26T23:07:13.049Z,9.69
2019-05-26T23:12:21.585Z,8.77
2019-05-26T23:17:30.154Z,7.09
2019-05-26T23:22:38.751Z,6.99
2019-05-26T23:27:47.325Z,9.82
2019-05-26T23:32:55.841Z,8.79
2019-05-26T23:38:04.417Z,7.77
2019-05-26T23:43:12.969Z,8.52
2019-05-26T23:48:21.506Z,8.87
2019-05-26T23:53:30.113Z,8.07
2019-05-26T23:58:38.658Z,7.48
